Data for 11/28/2007

Time Sea-Level Adjusted Pressure Absolute Pressure Temperature Relative Humidity Dew Point   
(mb) (inHg) (mb) (inHg) (C) (F) (%) (C) (F)
00:05 1019 30.09 849 25.07 -3.8 25.1 58 -11 12.2
00:10 1019 30.09 849 25.07 -3.8 25.2 56 -11.3 11.7
00:15 1019 30.09 849 25.07 -3.6 25.5 56 -11.2 11.8
00:20 1019 30.09 849 25.07 -3.6 25.6 55 -11.4 11.4
00:25 1020 30.12 849 25.07 -3.5 25.7 54 -11.6 11.1
00:30 1020 30.12 849 25.07 -3.4 25.8 54 -11.4 11.4
00:35 1020 30.12 849 25.07 -3.4 25.9 53 -11.6 11.1
00:40 1020 30.12 849 25.07 -3.4 25.9 53 -11.6 11.1
00:45 1020 30.12 849 25.07 -3.4 25.9 54 -11.4 11.5
00:50 1020 30.12 849 25.07 -3.4 25.9 54 -11.3 11.6
00:55 1020 30.12 849 25.07 -3.5 25.8 59 -10.4 13.3
01:00 1020 30.12 849 25.07 -3.8 25.1 59 -10.8 12.6
01:05 1020 30.12 849 25.07 -3.9 25 59 -10.8 12.6
01:10 1020 30.12 850 25.1 -3.9 25 60 -10.6 13
01:15 1020 30.12 850 25.1 -4 24.9 61 -10.5 13.1
01:20 1020 30.12 850 25.1 -4 24.8 62 -10.3 13.5
01:25 1021 30.15 850 25.1 -4 24.7 62 -10.3 13.5
01:30 1021 30.15 850 25.1 -4.2 24.5 62 -10.5 13.2
01:35 1021 30.15 850 25.1 -4.2 24.4 62 -10.5 13.1
01:40 1021 30.15 850 25.1 -4.2 24.5 62 -10.4 13.3
01:45 1021 30.15 850 25.1 -4.2 24.5 62 -10.4 13.4
01:50 1021 30.15 850 25.1 -4.2 24.4 62 -10.5 13.2
01:55 1021 30.15 850 25.1 -4.2 24.5 62 -10.4 13.4
02:00 1021 30.15 850 25.1 -4.1 24.5 62 -10.4 13.3
02:05 1021 30.15 850 25.1 -4.1 24.6 62 -10.4 13.4
02:10 1021 30.15 850 25.1 -4.1 24.6 61 -10.6 12.9
02:15 1021 30.15 850 25.1 -4 24.7 59 -10.8 12.5
02:20 1021 30.15 850 25.1 -4 24.8 58 -11.1 11.9
02:25 1021 30.15 850 25.1 -3.9 25 58 -11 12.1
02:30 1021 30.15 850 25.1 -3.8 25.2 59 -10.8 12.6
02:35 1021 30.15 850 25.1 -3.8 25.2 60 -10.6 13
02:40 1021 30.15 851 25.13 -3.8 25.1 59 -10.6 12.9
02:45 1021 30.15 851 25.13 -3.8 25.2 59 -10.7 12.7
02:50 1022 30.18 851 25.13 -3.7 25.3 58 -10.9 12.5
02:55 1022 30.18 851 25.13 -3.7 25.4 57 -11.1 12.1
03:00 1022 30.18 851 25.13 -3.6 25.5 56 -11.3 11.7
03:05 1022 30.18 851 25.13 -3.6 25.5 56 -11.2 11.9
03:10 1022 30.18 851 25.13 -3.6 25.4 56 -11.2 11.8
03:15 1022 30.18 851 25.13 -3.6 25.4 56 -11.2 11.8
03:20 1022 30.18 851 25.13 -3.6 25.5 55 -11.4 11.4
03:25 1022 30.18 851 25.13 -3.6 25.5 55 -11.4 11.5
03:30 1022 30.18 851 25.13 -3.7 25.4 57 -11.1 12
03:35 1022 30.18 851 25.13 -3.8 25.2 56 -11.4 11.5
03:40 1022 30.18 851 25.13 -3.8 25.2 57 -11.1 12
03:45 1022 30.18 851 25.13 -3.8 25.2 57 -11.2 11.8
03:50 1022 30.18 851 25.13 -3.8 25.2 57 -11.1 12
03:55 1022 30.18 851 25.13 -3.8 25.1 58 -10.9 12.3
04:00 1022 30.18 851 25.13 -3.9 25 58 -11.1 12.1
04:05 1022 30.18 851 25.13 -3.9 25 59 -10.7 12.7
04:10 1022 30.18 851 25.13 -3.9 25 60 -10.7 12.8
04:15 1022 30.18 851 25.13 -3.9 25 61 -10.2 13.6
04:20 1022 30.18 851 25.13 -3.9 24.9 63 -10.1 13.9
04:25 1022 30.18 851 25.13 -4 24.7 62 -10.3 13.4
04:30 1022 30.18 852 25.16 -4 24.7 61 -10.4 13.3
04:35 1022 30.18 852 25.16 -4 24.9 62 -10.2 13.6
04:40 1023 30.21 852 25.16 -3.9 25 64 -9.8 14.4
04:45 1023 30.21 852 25.16 -4 24.8 65 -9.7 14.5
04:50 1023 30.21 852 25.16 -4.1 24.5 66 -9.7 14.6
04:55 1023 30.21 852 25.16 -4.2 24.4 62 -10.4 13.3
05:00 1023 30.21 852 25.16 -4.2 24.5 61 -10.6 12.9
05:05 1023 30.21 852 25.16 -4.1 24.6 61 -10.6 12.9
05:10 1023 30.21 852 25.16 -4.2 24.5 60 -10.8 12.6
05:15 1023 30.21 852 25.16 -4.1 24.5 59 -10.9 12.4
05:20 1023 30.21 852 25.16 -4.1 24.7 59 -11 12.2
05:25 1023 30.21 852 25.16 -4 24.7 58 -11.2 11.9
05:30 1023 30.21 852 25.16 -4 24.9 57 -11.3 11.7
05:35 1023 30.21 852 25.16 -3.9 24.9 56 -11.4 11.4
05:40 1023 30.21 852 25.16 -3.9 24.9 58 -11 12.2
05:45 1023 30.21 852 25.16 -4.1 24.6 58 -11.1 12.1
05:50 1023 30.21 853 25.19 -4.1 24.6 58 -11.2 11.8
05:55 1023 30.21 853 25.19 -4.1 24.6 58 -11.1 12
06:00 1023 30.21 853 25.19 -4.1 24.5 60 -10.9 12.4
06:05 1023 30.21 853 25.19 -4.3 24.3 61 -10.8 12.6
06:10 1024 30.24 853 25.19 -4.4 24.1 60 -10.9 12.3
06:15 1024 30.24 853 25.19 -4.5 24 62 -10.7 12.7
06:20 1024 30.24 853 25.19 -4.6 23.8 62 -10.8 12.5
06:25 1024 30.24 853 25.19 -4.6 23.7 61 -11 12.2
06:30 1024 30.24 853 25.19 -4.6 23.7 62 -10.9 12.3
06:35 1024 30.24 853 25.19 -4.6 23.7 62 -10.8 12.5
06:40 1024 30.24 853 25.19 -4.7 23.6 63 -10.6 12.9
06:45 1024 30.24 853 25.19 -4.8 23.4 63 -10.8 12.5
06:50 1024 30.24 853 25.19 -4.8 23.4 61 -11.1 12
06:55 1024 30.24 853 25.19 -4.8 23.4 60 -11.3 11.7
07:00 1024 30.24 854 25.22 -4.7 23.6 59 -11.6 11.2
07:05 1024 30.24 854 25.22 -4.5 24 56 -11.9 10.5
07:10 1024 30.24 854 25.22 -4.3 24.3 56 -11.9 10.6
07:15 1024 30.24 854 25.22 -4.2 24.4 56 -11.8 10.7
07:20 1024 30.24 854 25.22 -4.3 24.2 59 -11.2 11.8
07:25 1025 30.27 854 25.22 -4.5 23.9 57 -11.8 10.8
07:30 1025 30.27 854 25.22 -4.4 24.1 54 -12.3 9.8
07:35 1025 30.27 854 25.22 -4.2 24.4 54 -12.2 10.1
07:40 1025 30.27 854 25.22 -4.3 24.3 56 -11.7 10.9
07:45 1025 30.27 854 25.22 -4.4 24.1 57 -11.6 11.1
07:50 1025 30.27 854 25.22 -4.5 23.9 58 -11.6 11.1
07:55 1025 30.27 854 25.22 -4.5 23.8 58 -11.6 11.2
08:00 1025 30.27 854 25.22 -4.6 23.7 59 -11.4 11.4
08:05 1025 30.27 854 25.22 -4.6 23.8 58 -11.7 10.9
08:10 1025 30.27 854 25.22 -4.6 23.7 57 -11.9 10.5
08:15 1025 30.27 854 25.22 -4.6 23.6 56 -12.3 9.9
08:20 1025 30.27 854 25.22 -4.6 23.8 56 -12.2 10.1
08:25 1025 30.27 854 25.22 -4.6 23.7 57 -11.9 10.6
08:30 1025 30.27 854 25.22 -4.6 23.7 56 -12.2 10
08:35 1025 30.27 854 25.22 -4.6 23.7 55 -12.4 9.6
08:40 1025 30.27 854 25.22 -4.5 24 50 -13.3 8
08:45 1025 30.27 854 25.22 -4.3 24.3 47 -13.9 7
08:50 1025 30.27 854 25.22 -4.1 24.6 46 -14 6.8
08:55 1024 30.24 854 25.22 -4.1 24.7 45 -14.3 6.3
09:00 1024 30.24 854 25.22 -4 24.7 46 -14.1 6.5
09:05 1024 30.24 854 25.22 -4.1 24.7 47 -13.8 7.1
09:10 1024 30.24 854 25.22 -4.1 24.6 48 -13.7 7.4
09:15 1024 30.24 854 25.22 -4.1 24.7 47 -13.9 7
09:20 1024 30.24 854 25.22 -4.1 24.6 48 -13.6 7.4
09:25 1024 30.24 854 25.22 -4.2 24.4 49 -13.4 7.9
09:30 1024 30.24 854 25.22 -4.3 24.2 50 -13.2 8.3
09:35 1025 30.27 854 25.22 -4.4 24.1 51 -13.1 8.5
09:40 1025 30.27 854 25.22 -4.1 24.6 49 -13.3 8.1
09:45 1025 30.27 854 25.22 -3.8 25.2 50 -12.8 9
09:50 1025 30.27 854 25.22 -3.8 25.2 51 -12.6 9.3
09:55 1025 30.27 854 25.22 -3.8 25.2 51 -12.6 9.4
10:00 1025 30.27 854 25.22 -3.7 25.4 51 -12.3 9.8
10:05 1025 30.27 854 25.22 -3.6 25.5 50 -12.7 9.2
10:10 1025 30.27 854 25.22 -3.5 25.6 49 -12.8 9
10:15 1025 30.27 854 25.22 -3.4 25.9 49 -12.6 9.2
10:20 1025 30.27 854 25.22 -3 26.6 47 -12.9 8.7
10:25 1025 30.27 854 25.22 -3 26.6 45 -13.4 7.9
10:30 1025 30.27 854 25.22 -3.1 26.3 47 -12.8 8.9
10:35 1025 30.27 854 25.22 -3.2 26.3 47 -13 8.6
10:40 1025 30.27 854 25.22 -3.3 26.1 48 -12.9 8.8
10:45 1025 30.27 854 25.22 -3.3 26 47 -13.1 8.4
10:50 1025 30.27 854 25.22 -3.3 26.1 47 -13.2 8.3
10:55 1024 30.24 854 25.22 -3.2 26.3 46 -13.3 8.1
11:00 1024 30.24 854 25.22 -3 26.7 43 -13.8 7.2
11:05 1024 30.24 854 25.22 -2.9 26.7 45 -13.2 8.3
11:10 1024 30.24 854 25.22 -2.8 27 41 -14.4 6.2
11:15 1024 30.24 853 25.19 -2.7 27.1 40 -14.6 5.8
11:20 1024 30.24 853 25.19 -2.6 27.3 40 -14.5 5.9
11:25 1024 30.24 853 25.19 -2.5 27.4 38 -14.9 5.2
11:30 1024 30.24 853 25.19 -2.5 27.6 40 -14.5 6
11:35 1024 30.24 853 25.19 -2.2 28 41 -13.7 7.3
11:40 1024 30.24 853 25.19 -2.5 27.5 43 -13.4 7.9
11:45 1024 30.24 853 25.19 -2.4 27.6 41 -13.9 7
11:50 1024 30.24 853 25.19 -2.1 28.3 40 -14 6.7
11:55 1024 30.24 853 25.19 -1.7 28.9 36 -15 5.1
12:00 1024 30.24 853 25.19 -1.2 29.8 34 -15.1 4.9
12:05 1024 30.24 853 25.19 -1.1 30 34 -15 4.9
12:10 1024 30.24 853 25.19 -1.3 29.7 34 -15.1 4.8
12:15 1024 30.24 853 25.19 -1 30.3 35 -14.5 6
12:20 1024 30.24 853 25.19 -0.5 31 32 -15.2 4.6
12:25 1024 30.24 853 25.19 -0.4 31.2 33 -14.9 5.3
12:30 1024 30.24 853 25.19 -0.5 31.1 34 -14.7 5.5
12:35 1024 30.24 853 25.19 -0.4 31.2 34 -14.3 6.2
12:40 1023 30.21 853 25.19 -0.1 31.8 35 -13.9 7
12:45 1023 30.21 853 25.19 -0.1 31.8 34 -14.1 6.6
12:50 1023 30.21 853 25.19 -0 31.9 35 -13.8 7.1
12:55 1023 30.21 852 25.16 0.2 32.3 35 -13.8 7.2
13:00 1023 30.21 852 25.16 -0.1 31.9 36 -13.6 7.5
13:05 1023 30.21 852 25.16 0.1 32.2 34 -13.9 7
13:10 1023 30.21 852 25.16 -0.8 30.5 36 -14 6.8
13:15 1023 30.21 852 25.16 -1.1 30.1 37 -13.8 7.1
13:20 1023 30.21 852 25.16 -1 30.1 37 -14.1 6.6
13:25 1023 30.21 853 25.19 -1.1 30.1 38 -13.7 7.3
13:30 1023 30.21 853 25.19 -0.8 30.6 37 -13.9 6.9
13:35 1023 30.21 852 25.16 -1 30.2 39 -13.1 8.4
13:40 1023 30.21 852 25.16 -0.5 31.2 38 -13.2 8.3
13:45 1023 30.21 852 25.16 -0.4 31.2 37 -13.3 8
13:50 1023 30.21 852 25.16 -0.8 30.5 39 -13 8.6
13:55 1023 30.21 852 25.16 -1.2 29.9 41 -12.9 8.8
14:00 1023 30.21 852 25.16 -1.2 29.8 38 -13.7 7.4
14:05 1023 30.21 852 25.16 -1.2 29.8 38 -13.9 7.1
14:10 1023 30.21 852 25.16 -1 30.2 39 -13.2 8.2
14:15 1023 30.21 852 25.16 -1.2 29.8 40 -13.2 8.3
14:20 1023 30.21 852 25.16 -1.1 30 41 -12.8 8.9
14:25 1023 30.21 852 25.16 -1.2 29.8 39 -13.7 7.4
14:30 1023 30.21 852 25.16 -1.3 29.7 40 -13.2 8.2
14:35 1023 30.21 852 25.16 -1.4 29.6 40 -13.4 7.9
14:40 1023 30.21 852 25.16 -1.3 29.6 39 -13.7 7.3
14:45 1023 30.21 852 25.16 -1.3 29.6 42 -12.8 9
14:50 1023 30.21 852 25.16 -1.5 29.3 42 -12.8 9
14:55 1023 30.21 852 25.16 -1.4 29.4 40 -13.3 8
15:00 1023 30.21 852 25.16 -1.6 29.1 39 -14 6.8
15:05 1023 30.21 852 25.16 -1.7 29 40 -13.7 7.4
15:10 1023 30.21 852 25.16 -1.7 28.9 40 -13.5 7.6
15:15 1023 30.21 852 25.16 -2 28.5 41 -13.5 7.6
15:20 1023 30.21 852 25.16 -1.9 28.5 42 -13.3 8
15:25 1023 30.21 852 25.16 -1.8 28.8 41 -13.5 7.7
15:30 1023 30.21 852 25.16 -1.6 29.1 42 -13 8.7
15:35 1023 30.21 852 25.16 -1.4 29.5 39 -13.6 7.5
15:40 1023 30.21 852 25.16 -1.5 29.3 40 -13.6 7.6
15:45 1022 30.18 852 25.16 -1.6 29.1 41 -13.3 8
15:50 1022 30.18 852 25.16 -1.8 28.7 40 -13.7 7.4
15:55 1022 30.18 852 25.16 -1.9 28.6 40 -13.7 7.4
16:00 1022 30.18 852 25.16 -1.8 28.8 42 -13.1 8.4
16:05 1023 30.21 852 25.16 -1.9 28.6 42 -13.2 8.2
16:10 1023 30.21 852 25.16 -2.2 28 42 -13.5 7.7
16:15 1023 30.21 852 25.16 -2.2 28 42 -13.6 7.5
16:20 1023 30.21 852 25.16 -2.4 27.7 42 -13.7 7.3
16:25 1023 30.21 852 25.16 -2.5 27.5 41 -13.9 6.9
16:30 1023 30.21 852 25.16 -2.5 27.4 42 -13.8 7.2
16:35 1023 30.21 852 25.16 -2.6 27.3 42 -13.8 7.2
16:40 1023 30.21 852 25.16 -2.7 27.2 43 -13.6 7.5
16:45 1023 30.21 852 25.16 -2.7 27.2 43 -13.5 7.6
16:50 1023 30.21 852 25.16 -2.7 27.2 44 -13.3 8
16:55 1023 30.21 852 25.16 -2.8 26.9 45 -13.1 8.4
17:00 1023 30.21 852 25.16 -2.9 26.9 45 -13.3 8
17:05 1022 30.18 852 25.16 -2.9 26.7 46 -13 8.6
17:10 1023 30.21 852 25.16 -3.1 26.5 44 -13.6 7.5
17:15 1022 30.18 852 25.16 -3.1 26.4 44 -13.7 7.3
17:20 1022 30.18 852 25.16 -3.2 26.3 46 -13.3 8
17:25 1022 30.18 851 25.13 -3.4 25.9 46 -13.4 7.8
17:30 1022 30.18 851 25.13 -3.4 25.9 45 -13.6 7.5
17:35 1022 30.18 851 25.13 -3.3 26.1 42 -14.3 6.2
17:40 1022 30.18 851 25.13 -3.2 26.2 43 -14.1 6.7
17:45 1022 30.18 851 25.13 -3.4 25.9 43 -14.2 6.5
17:50 1022 30.18 851 25.13 -3.5 25.7 43 -14.4 6.1
17:55 1022 30.18 851 25.13 -3.4 25.9 42 -14.5 6
18:00 1022 30.18 851 25.13 -3.5 25.8 43 -14.3 6.3
18:05 1021 30.15 851 25.13 -3.5 25.7 44 -14.2 6.5
18:10 1021 30.15 851 25.13 -3.6 25.5 43 -14.4 6.1
18:15 1021 30.15 851 25.13 -3.8 25.2 45 -14.2 6.4
18:20 1021 30.15 850 25.1 -4.6 23.7 48 -14 6.7
18:25 1021 30.15 850 25.1 -5.1 22.8 48 -14.5 5.9
18:30 1021 30.15 850 25.1 -4.8 23.4 47 -14.4 6.2
18:35 1021 30.15 850 25.1 -4.5 24 46 -14.5 5.9
18:40 1021 30.15 850 25.1 -4.3 24.3 45 -14.5 5.9
18:45 1021 30.15 850 25.1 -4.5 23.9 47 -14.1 6.6
18:50 1021 30.15 850 25.1 -5.3 22.4 51 -14 6.8
18:55 1021 30.15 850 25.1 -5.8 21.6 52 -14.3 6.3
19:00 1021 30.15 850 25.1 -6 21.2 52 -14.4 6.1
19:05 1021 30.15 850 25.1 -6.2 20.8 53 -14.4 6.1
19:10 1021 30.15 850 25.1 -6.4 20.5 53 -14.5 5.9
19:15 1021 30.15 850 25.1 -6.4 20.5 52 -14.7 5.5
19:20 1021 30.15 850 25.1 -5.9 21.3 48 -15.3 4.4
19:25 1021 30.15 850 25.1 -5.7 21.8 49 -14.7 5.5
19:30 1021 30.15 850 25.1 -6 21.1 51 -14.7 5.5
19:35 1021 30.15 850 25.1 -6.6 20.2 51 -15.1 4.9
19:40 1020 30.12 850 25.1 -6.6 20.1 53 -14.7 5.5
19:45 1020 30.12 850 25.1 -6.8 19.8 55 -14.5 5.9
19:50 1020 30.12 850 25.1 -6.8 19.8 55 -14.4 6.1
19:55 1020 30.12 849 25.07 -6.7 19.9 53 -14.9 5.2
20:00 1020 30.12 849 25.07 -6.7 19.9 51 -15.1 4.8
20:05 1020 30.12 849 25.07 -6.5 20.3 52 -14.9 5.2
20:10 1020 30.12 849 25.07 -6.5 20.3 52 -14.7 5.5
20:15 1020 30.12 849 25.07 -6.4 20.5 56 -13.8 7.1
20:20 1020 30.12 849 25.07 -6.9 19.6 55 -14.5 5.8
20:25 1020 30.12 849 25.07 -7.2 19 55 -14.8 5.4
20:30 1020 30.12 849 25.07 -7.2 19.1 56 -14.5 5.9
20:35 1020 30.12 849 25.07 -7.1 19.2 55 -14.8 5.4
20:40 1020 30.12 849 25.07 -6.8 19.8 54 -14.6 5.8
20:45 1020 30.12 849 25.07 -6.7 20 55 -14.3 6.3
20:50 1019 30.09 849 25.07 -6.8 19.8 55 -14.4 6.1
20:55 1019 30.09 849 25.07 -7 19.4 55 -14.6 5.6
21:00 1019 30.09 848 25.04 -7 19.3 55 -14.6 5.8
21:05 1019 30.09 848 25.04 -6.8 19.8 55 -14.3 6.2
21:10 1019 30.09 848 25.04 -6.6 20.2 55 -14.2 6.4
21:15 1019 30.09 848 25.04 -6.5 20.3 56 -13.9 6.9
21:20 1019 30.09 848 25.04 -6.8 19.7 58 -13.8 7.1
21:25 1019 30.09 848 25.04 -7.2 19.1 58 -14.1 6.7
21:30 1019 30.09 849 25.07 -7.2 19.1 53 -15.2 4.6
21:35 1019 30.09 848 25.04 -6.7 19.9 52 -15 4.9
21:40 1019 30.09 848 25.04 -6.1 21 49 -15.3 4.5
21:45 1019 30.09 848 25.04 -5.5 22.1 48 -14.9 5.2
21:50 1019 30.09 848 25.04 -5.3 22.4 47 -14.8 5.3
21:55 1019 30.09 848 25.04 -5.3 22.4 52 -13.7 7.4
22:00 1019 30.09 848 25.04 -5.8 21.5 54 -13.8 7.1
22:05 1019 30.09 848 25.04 -6.5 20.2 54 -14.5 6
22:10 1019 30.09 848 25.04 -6.4 20.5 55 -14 6.8
22:15 1019 30.09 848 25.04 -6.4 20.6 54 -14.1 6.6
22:20 1019 30.09 848 25.04 -6.1 21 53 -14.2 6.4
22:25 1018 30.06 848 25.04 -5.9 21.4 52 -14.2 6.4
22:30 1018 30.06 847 25.01 -5.9 21.4 52 -14.2 6.5
22:35 1018 30.06 847 25.01 -5.8 21.5 53 -13.9 6.9
22:40 1018 30.06 847 25.01 -6.1 21 60 -12.8 9
22:45 1018 30.06 847 25.01 -6.9 19.6 58 -13.9 7.1
22:50 1018 30.06 847 25.01 -6.7 19.9 54 -14.6 5.7
22:55 1018 30.06 847 25.01 -6.1 21 52 -14.6 5.8
23:00 1018 30.06 847 25.01 -5.9 21.4 53 -14 6.7
23:05 1018 30.06 847 25.01 -6 21.2 56 -13.5 7.7
23:10 1018 30.06 847 25.01 -6.2 20.8 55 -13.9 6.9
23:15 1017 30.03 847 25.01 -6.3 20.7 56 -13.7 7.3
23:20 1017 30.03 847 25.01 -6.2 20.8 54 -14 6.8
23:25 1017 30.03 846 24.98 -6.2 20.9 54 -14 6.8
23:30 1017 30.03 846 24.98 -6.2 20.8 55 -13.9 7.1
23:35 1017 30.03 846 24.98 -6.2 20.9 55 -13.9 7
23:40 1017 30.03 846 24.98 -6 21.2 56 -13.4 7.8
23:45 1017 30.03 846 24.98 -6 21.3 55 -13.6 7.6
23:50 1017 30.03 846 24.98 -6.2 20.9 57 -13.3 8
23:55 1017 30.03 846 24.98 -6.4 20.5 55 -13.9 7
24:00 1017 30.03 846 24.98 -6.4 20.5 59 -13.2 8.2